createdAt,value
2017-12-26T00:00:01.170Z,5.57
2017-12-26T00:01:02.584Z,5.63
2017-12-26T00:02:04.004Z,5.55
2017-12-26T00:03:05.412Z,5.59
2017-12-26T00:04:06.818Z,5.55
2017-12-26T00:05:08.228Z,5.59
2017-12-26T00:06:09.644Z,5.43
2017-12-26T00:07:11.054Z,5.52
2017-12-26T00:08:12.461Z,5.45
2017-12-26T00:09:13.872Z,5.48
2017-12-26T00:10:15.301Z,5.45
2017-12-26T00:11:16.711Z,5.45
2017-12-26T00:12:18.117Z,5.49
2017-12-26T00:13:19.548Z,5.46
2017-12-26T00:14:20.966Z,5.43
2017-12-26T00:15:22.387Z,5.35
2017-12-26T00:16:23.794Z,5.49
2017-12-26T00:17:25.208Z,5.49
2017-12-26T00:18:26.616Z,5.45
2017-12-26T00:19:28.016Z,5.40
2017-12-26T00:20:29.426Z,5.38
2017-12-26T00:21:30.841Z,5.38
2017-12-26T00:22:32.254Z,5.35
2017-12-26T00:23:33.656Z,5.55
2017-12-26T00:24:35.083Z,5.43
2017-12-26T00:25:36.495Z,5.40
2017-12-26T00:26:37.905Z,5.38
2017-12-26T00:27:39.315Z,5.57
2017-12-26T00:28:40.729Z,5.40
2017-12-26T00:29:42.136Z,5.35
2017-12-26T00:30:43.543Z,5.40
2017-12-26T00:31:44.963Z,5.35
2017-12-26T00:32:46.370Z,5.52
2017-12-26T00:33:47.783Z,5.37
2017-12-26T00:34:49.187Z,5.43
2017-12-26T00:35:50.592Z,5.32
2017-12-26T00:36:51.999Z,5.41
2017-12-26T00:37:53.411Z,5.49
2017-12-26T00:38:54.853Z,5.41
2017-12-26T00:39:56.232Z,5.32
2017-12-26T00:40:57.634Z,5.35
2017-12-26T00:41:59.057Z,5.50
2017-12-26T00:43:00.483Z,5.35
2017-12-26T00:44:01.907Z,5.38
2017-12-26T00:45:03.305Z,5.37
2017-12-26T00:46:04.720Z,5.46
2017-12-26T00:47:06.146Z,5.40
2017-12-26T00:48:07.549Z,5.41
2017-12-26T00:49:08.953Z,5.46
2017-12-26T00:50:10.372Z,5.59
2017-12-26T00:51:11.778Z,5.56
2017-12-26T00:52:13.196Z,5.46
2017-12-26T00:53:14.607Z,5.52
2017-12-26T00:54:16.024Z,5.56
2017-12-26T00:55:17.428Z,5.59
2017-12-26T00:56:18.834Z,5.74
2017-12-26T00:57:20.247Z,5.67
2017-12-26T00:58:21.660Z,5.75
2017-12-26T00:59:23.067Z,5.55
2017-12-26T01:00:24.527Z,5.70
2017-12-26T01:01:25.950Z,5.56
2017-12-26T01:02:27.357Z,5.57
2017-12-26T01:03:28.770Z,5.55
2017-12-26T01:04:30.180Z,5.53
2017-12-26T01:05:31.585Z,5.66
2017-12-26T01:06:33.006Z,5.67
2017-12-26T01:07:34.409Z,5.74
2017-12-26T01:08:35.834Z,5.77
2017-12-26T01:09:37.246Z,5.74
2017-12-26T01:10:38.657Z,5.83
2017-12-26T01:11:40.071Z,5.86
2017-12-26T01:12:41.491Z,5.81
2017-12-26T01:13:42.904Z,5.74
2017-12-26T01:14:44.307Z,5.66
2017-12-26T01:15:45.718Z,5.83
2017-12-26T01:16:47.126Z,5.85
2017-12-26T01:17:48.538Z,5.83
2017-12-26T01:18:49.959Z,5.81
2017-12-26T01:19:51.360Z,5.81
2017-12-26T01:20:52.768Z,5.88
2017-12-26T01:21:54.182Z,5.78
2017-12-26T01:22:55.596Z,5.88
2017-12-26T01:23:57.006Z,5.88
2017-12-26T01:24:58.416Z,5.86
2017-12-26T01:25:59.822Z,5.85
2017-12-26T01:27:01.231Z,5.88
2017-12-26T01:28:02.644Z,5.96
2017-12-26T01:29:04.054Z,6.18
2017-12-26T01:30:05.486Z,6.11
2017-12-26T01:31:06.893Z,6.13
2017-12-26T01:32:08.358Z,6.06
2017-12-26T01:33:09.774Z,6.07
2017-12-26T01:34:11.176Z,6.10
2017-12-26T01:35:12.584Z,6.07
2017-12-26T01:36:13.989Z,5.98
2017-12-26T01:37:15.404Z,6.13
2017-12-26T01:38:16.811Z,6.21
2017-12-26T01:39:18.225Z,6.14
2017-12-26T01:40:19.627Z,6.07
2017-12-26T01:41:21.031Z,6.13
2017-12-26T01:42:22.429Z,6.25
2017-12-26T01:43:23.847Z,6.33
2017-12-26T01:44:25.258Z,6.32
2017-12-26T01:45:26.663Z,6.35
2017-12-26T01:46:28.076Z,6.46
2017-12-26T01:47:29.484Z,6.40
2017-12-26T01:48:30.928Z,6.43
2017-12-26T01:49:32.337Z,6.48
2017-12-26T01:50:33.745Z,6.56
2017-12-26T01:51:35.160Z,6.51
2017-12-26T01:52:36.566Z,6.58
2017-12-26T01:53:37.981Z,6.59
2017-12-26T01:54:39.394Z,6.54
2017-12-26T01:55:40.843Z,6.56
2017-12-26T01:56:42.262Z,6.47
2017-12-26T01:57:43.671Z,6.54
2017-12-26T01:58:45.083Z,6.53
2017-12-26T01:59:46.494Z,6.62
2017-12-26T02:00:47.908Z,6.61
2017-12-26T02:01:49.312Z,6.62
2017-12-26T02:02:50.772Z,6.71
2017-12-26T02:03:52.168Z,6.69
2017-12-26T02:04:53.572Z,6.71
2017-12-26T02:05:54.991Z,6.63
2017-12-26T02:06:56.396Z,6.62
2017-12-26T02:07:57.818Z,6.69
2017-12-26T02:08:59.323Z,6.72
2017-12-26T02:10:00.750Z,6.66
2017-12-26T02:11:02.167Z,6.76
2017-12-26T02:12:03.576Z,6.79
2017-12-26T02:13:04.984Z,6.79
2017-12-26T02:14:06.397Z,6.98
2017-12-26T02:15:07.806Z,6.80
2017-12-26T02:16:09.214Z,6.81
2017-12-26T02:17:10.641Z,6.80
2017-12-26T02:18:12.055Z,6.94
2017-12-26T02:19:13.468Z,6.94
2017-12-26T02:20:14.877Z,7.08
2017-12-26T02:21:16.290Z,7.05
2017-12-26T02:22:17.697Z,7.08
2017-12-26T02:23:19.108Z,7.04
2017-12-26T02:24:20.516Z,7.16
2017-12-26T02:25:21.927Z,7.01
2017-12-26T02:26:23.339Z,7.12
2017-12-26T02:27:24.743Z,7.23
2017-12-26T02:28:26.215Z,7.08
2017-12-26T02:29:27.613Z,7.16
2017-12-26T02:30:29.024Z,7.15
2017-12-26T02:31:30.427Z,7.26
2017-12-26T02:32:31.842Z,7.22
2017-12-26T02:33:33.239Z,7.29
2017-12-26T02:34:34.656Z,7.27
2017-12-26T02:35:36.088Z,7.29
2017-12-26T02:36:37.492Z,7.24
2017-12-26T02:37:38.911Z,7.38
2017-12-26T02:38:40.318Z,7.20
2017-12-26T02:39:41.776Z,7.24
2017-12-26T02:40:43.133Z,7.20
2017-12-26T02:41:44.547Z,7.16
2017-12-26T02:42:45.956Z,7.22
2017-12-26T02:43:47.367Z,7.26
2017-12-26T02:44:48.774Z,7.38
2017-12-26T02:45:50.195Z,7.35
2017-12-26T02:46:51.601Z,7.34
2017-12-26T02:47:53.006Z,7.32
2017-12-26T02:48:54.452Z,7.26
2017-12-26T02:49:55.826Z,7.27
2017-12-26T02:50:57.251Z,7.35
2017-12-26T02:51:58.655Z,7.37
2017-12-26T02:53:00.073Z,7.45
2017-12-26T02:54:01.503Z,7.38
2017-12-26T02:55:02.903Z,7.32
2017-12-26T02:56:04.317Z,7.42
2017-12-26T02:57:05.723Z,7.40
2017-12-26T02:58:07.135Z,7.41
2017-12-26T02:59:11.735Z,7.52
2017-12-26T03:00:13.142Z,7.40
2017-12-26T03:01:14.549Z,7.32
2017-12-26T03:02:15.972Z,7.32
2017-12-26T03:03:17.387Z,7.35
2017-12-26T03:04:18.796Z,7.45
2017-12-26T03:05:20.202Z,7.38
2017-12-26T03:06:21.605Z,7.42
2017-12-26T03:07:23.015Z,7.53
2017-12-26T03:08:24.428Z,7.42
2017-12-26T03:09:25.833Z,7.45
2017-12-26T03:10:27.242Z,7.42
2017-12-26T03:11:28.668Z,7.42
2017-12-26T03:12:30.083Z,7.42
2017-12-26T03:13:31.505Z,7.38
2017-12-26T03:14:32.915Z,7.41
2017-12-26T03:15:34.356Z,7.40
2017-12-26T03:16:35.775Z,7.34
2017-12-26T03:17:37.177Z,7.38
2017-12-26T03:18:38.586Z,7.29
2017-12-26T03:19:39.998Z,7.37
2017-12-26T03:20:41.483Z,7.40
2017-12-26T03:21:42.893Z,7.32
2017-12-26T03:22:44.299Z,7.49
2017-12-26T03:23:45.711Z,7.55
2017-12-26T03:24:47.129Z,7.42
2017-12-26T03:25:48.590Z,7.44
2017-12-26T03:26:49.949Z,7.49
2017-12-26T03:27:51.365Z,7.53
2017-12-26T03:28:52.776Z,7.44
2017-12-26T03:29:54.196Z,7.37
2017-12-26T03:30:55.611Z,7.47
2017-12-26T03:31:57.017Z,7.56
2017-12-26T03:32:58.425Z,7.56
2017-12-26T03:33:59.831Z,7.60
2017-12-26T03:35:01.243Z,7.44
2017-12-26T03:36:02.652Z,7.47
2017-12-26T03:37:04.068Z,7.47
2017-12-26T03:38:05.476Z,7.40
2017-12-26T03:39:06.886Z,7.41
2017-12-26T03:40:08.291Z,7.44
2017-12-26T03:41:09.697Z,7.58
2017-12-26T03:42:11.105Z,7.55
2017-12-26T03:43:12.514Z,7.53
2017-12-26T03:44:13.930Z,7.53
2017-12-26T03:45:15.337Z,7.44
2017-12-26T03:46:16.740Z,7.55
2017-12-26T03:47:18.156Z,7.52
2017-12-26T03:48:19.567Z,7.58
2017-12-26T03:49:20.972Z,7.56
2017-12-26T03:50:22.396Z,7.56
2017-12-26T03:51:23.817Z,7.58
2017-12-26T03:52:25.228Z,7.59
2017-12-26T03:53:26.629Z,7.47
2017-12-26T03:54:28.038Z,7.59
2017-12-26T03:55:29.445Z,7.56
2017-12-26T03:56:30.855Z,7.55
2017-12-26T03:57:32.263Z,7.55
2017-12-26T03:58:33.751Z,7.40
2017-12-26T03:59:35.171Z,7.59
2017-12-26T04:00:36.577Z,7.67
2017-12-26T04:01:37.984Z,7.74
2017-12-26T04:02:39.364Z,7.74
2017-12-26T04:03:40.777Z,7.77
2017-12-26T04:04:42.182Z,7.56
2017-12-26T04:05:43.598Z,7.72
2017-12-26T04:06:45.011Z,7.75
2017-12-26T04:07:46.424Z,7.62
2017-12-26T04:08:47.837Z,7.69
2017-12-26T04:09:49.240Z,7.59
2017-12-26T04:10:50.665Z,7.59
2017-12-26T04:11:52.073Z,7.74
2017-12-26T04:12:53.487Z,7.75
2017-12-26T04:13:54.891Z,7.69
2017-12-26T04:14:56.297Z,7.66
2017-12-26T04:15:57.696Z,7.67
2017-12-26T04:16:59.110Z,7.71
2017-12-26T04:18:00.516Z,7.69
2017-12-26T04:19:01.927Z,7.75
2017-12-26T04:20:03.349Z,7.69
2017-12-26T04:21:04.748Z,7.47
2017-12-26T04:22:06.162Z,7.59
2017-12-26T04:23:07.572Z,7.77
2017-12-26T04:24:08.986Z,7.75
2017-12-26T04:25:10.394Z,7.82
2017-12-26T04:26:11.807Z,7.75
2017-12-26T04:27:13.224Z,7.72
2017-12-26T04:28:14.624Z,7.72
2017-12-26T04:29:16.034Z,7.58
2017-12-26T04:30:17.440Z,7.59
2017-12-26T04:31:18.869Z,7.66
2017-12-26T04:32:20.274Z,7.72
2017-12-26T04:33:21.647Z,7.74
2017-12-26T04:34:23.053Z,7.59
2017-12-26T04:35:24.468Z,7.59
2017-12-26T04:36:25.874Z,7.60
2017-12-26T04:37:27.286Z,7.60
2017-12-26T04:38:28.692Z,7.77
2017-12-26T04:39:30.105Z,7.74
2017-12-26T04:40:31.517Z,7.75
2017-12-26T04:41:32.927Z,7.67
2017-12-26T04:42:34.337Z,7.62
2017-12-26T04:43:35.744Z,7.60
2017-12-26T04:44:37.156Z,7.58
2017-12-26T04:45:38.563Z,7.58
2017-12-26T04:46:39.976Z,7.74
2017-12-26T04:47:41.383Z,7.62
2017-12-26T04:48:42.799Z,7.62
2017-12-26T04:49:44.200Z,7.75
2017-12-26T04:50:45.620Z,7.74
2017-12-26T04:51:47.019Z,7.75
2017-12-26T04:52:48.427Z,7.78
2017-12-26T04:53:49.838Z,7.85
2017-12-26T04:54:51.247Z,7.87
2017-12-26T04:55:52.655Z,7.97
2017-12-26T04:56:54.070Z,7.89
2017-12-26T04:57:55.475Z,7.94
2017-12-26T04:58:56.877Z,7.92
2017-12-26T04:59:58.287Z,7.99
2017-12-26T05:00:59.709Z,7.99
2017-12-26T05:02:01.110Z,7.99
2017-12-26T05:03:02.520Z,7.96
2017-12-26T05:04:03.925Z,8.00
2017-12-26T05:05:05.345Z,8.11
2017-12-26T05:06:06.756Z,7.93
2017-12-26T05:07:08.165Z,7.99
2017-12-26T05:08:09.579Z,8.04
2017-12-26T05:09:10.996Z,7.97
2017-12-26T05:10:12.402Z,8.18
2017-12-26T05:11:13.800Z,8.18
2017-12-26T05:12:15.219Z,8.14
2017-12-26T05:13:16.627Z,8.14
2017-12-26T05:14:18.035Z,8.21
2017-12-26T05:15:19.445Z,8.26
2017-12-26T05:16:20.864Z,8.26
2017-12-26T05:17:22.280Z,8.15
2017-12-26T05:18:23.680Z,8.25
2017-12-26T05:19:25.102Z,8.25
2017-12-26T05:20:26.513Z,8.21
2017-12-26T05:21:27.923Z,8.44
2017-12-26T05:22:29.339Z,8.42
2017-12-26T05:23:30.745Z,8.40
2017-12-26T05:24:32.163Z,8.42
2017-12-26T05:25:33.565Z,8.48
2017-12-26T05:26:34.977Z,8.39
2017-12-26T05:27:36.381Z,8.35
2017-12-26T05:28:37.866Z,8.54
2017-12-26T05:29:39.276Z,8.48
2017-12-26T05:30:40.694Z,8.42
2017-12-26T05:31:42.099Z,8.36
2017-12-26T05:32:43.505Z,8.50
2017-12-26T05:33:44.911Z,8.40
2017-12-26T05:34:46.318Z,8.51
2017-12-26T05:35:47.736Z,8.62
2017-12-26T05:36:49.148Z,8.63
2017-12-26T05:37:50.558Z,8.65
2017-12-26T05:38:51.981Z,8.60
2017-12-26T05:39:53.386Z,8.57
2017-12-26T05:40:54.806Z,8.66
2017-12-26T05:41:56.213Z,8.68
2017-12-26T05:42:57.627Z,8.65
2017-12-26T05:43:59.037Z,8.75
2017-12-26T05:45:00.464Z,8.71
2017-12-26T05:46:01.865Z,8.58
2017-12-26T05:47:03.275Z,8.71
2017-12-26T05:48:04.802Z,8.78
2017-12-26T05:49:06.217Z,8.84
2017-12-26T05:50:07.627Z,8.90
2017-12-26T05:51:09.035Z,8.86
2017-12-26T05:52:10.454Z,8.91
2017-12-26T05:53:11.860Z,8.81
2017-12-26T05:54:13.278Z,8.84
2017-12-26T05:55:14.696Z,8.87
2017-12-26T05:56:16.106Z,8.90
2017-12-26T05:57:17.512Z,8.91
2017-12-26T05:58:18.943Z,8.99
2017-12-26T05:59:20.357Z,9.09
2017-12-26T06:00:21.773Z,9.13
2017-12-26T06:01:23.187Z,9.01
2017-12-26T06:02:24.622Z,9.13
2017-12-26T06:03:26.035Z,8.96
2017-12-26T06:04:27.437Z,8.94
2017-12-26T06:05:28.863Z,8.81
2017-12-26T06:06:30.268Z,8.91
2017-12-26T06:07:31.671Z,8.90
2017-12-26T06:08:33.088Z,8.81
2017-12-26T06:09:34.491Z,8.94
2017-12-26T06:10:35.894Z,8.90
2017-12-26T06:11:37.310Z,8.78
2017-12-26T06:12:38.721Z,8.96
2017-12-26T06:13:40.256Z,8.91
2017-12-26T06:14:41.669Z,8.97
2017-12-26T06:15:43.073Z,8.81
2017-12-26T06:16:44.478Z,9.09
2017-12-26T06:17:45.894Z,9.01
2017-12-26T06:18:47.306Z,8.91
2017-12-26T06:19:48.713Z,8.91
2017-12-26T06:20:50.120Z,8.73
2017-12-26T06:21:51.537Z,8.83
2017-12-26T06:22:52.953Z,8.79
2017-12-26T06:23:54.368Z,8.72
2017-12-26T06:24:55.779Z,8.72
2017-12-26T06:25:57.227Z,8.68
2017-12-26T06:26:58.638Z,8.53
2017-12-26T06:28:00.054Z,8.71
2017-12-26T06:29:01.468Z,8.68
2017-12-26T06:30:02.874Z,8.65
2017-12-26T06:31:04.285Z,8.65
2017-12-26T06:32:05.696Z,8.57
2017-12-26T06:33:07.114Z,8.71
2017-12-26T06:34:08.516Z,8.62
2017-12-26T06:35:09.934Z,8.54
2017-12-26T06:36:11.340Z,8.66
2017-12-26T06:37:12.759Z,8.63
2017-12-26T06:38:14.161Z,8.60
2017-12-26T06:39:15.678Z,8.55
2017-12-26T06:40:17.089Z,8.63
2017-12-26T06:41:18.501Z,8.58
2017-12-26T06:42:19.947Z,8.75
2017-12-26T06:43:21.372Z,8.81
2017-12-26T06:44:22.800Z,8.71
2017-12-26T06:45:24.222Z,8.60
2017-12-26T06:46:25.629Z,8.62
2017-12-26T06:47:27.032Z,8.63
2017-12-26T06:48:28.442Z,8.65
2017-12-26T06:49:29.849Z,8.71
2017-12-26T06:50:31.263Z,8.71
2017-12-26T06:51:32.668Z,8.55
2017-12-26T06:52:34.083Z,8.69
2017-12-26T06:53:35.495Z,8.65
2017-12-26T06:54:36.907Z,8.53
2017-12-26T06:55:38.319Z,8.78
2017-12-26T06:56:39.726Z,8.71
2017-12-26T06:57:41.144Z,8.51
2017-12-26T06:58:42.559Z,8.42
2017-12-26T06:59:43.968Z,8.42
2017-12-26T07:00:45.373Z,8.35
2017-12-26T07:01:46.788Z,8.37
2017-12-26T07:02:48.208Z,8.33
2017-12-26T07:03:49.610Z,8.37
2017-12-26T07:04:51.046Z,8.48
2017-12-26T07:05:52.427Z,8.37
2017-12-26T07:06:53.840Z,8.10
2017-12-26T07:07:55.245Z,8.21
2017-12-26T07:08:56.651Z,8.28
2017-12-26T07:09:58.058Z,8.21
2017-12-26T07:10:59.469Z,8.25
2017-12-26T07:12:00.879Z,8.18
2017-12-26T07:13:02.294Z,8.29
2017-12-26T07:14:03.705Z,8.22
2017-12-26T07:15:05.115Z,8.18
2017-12-26T07:16:06.525Z,8.00
2017-12-26T07:17:07.930Z,7.99
2017-12-26T07:18:09.345Z,7.97
2017-12-26T07:19:10.755Z,7.93
2017-12-26T07:20:12.169Z,7.96
2017-12-26T07:21:13.586Z,7.97
2017-12-26T07:22:15.003Z,8.00
2017-12-26T07:23:16.409Z,8.08
2017-12-26T07:24:17.816Z,8.00
2017-12-26T07:25:19.227Z,7.97
2017-12-26T07:26:20.632Z,8.00
2017-12-26T07:27:22.033Z,7.99
2017-12-26T07:28:23.475Z,8.02
2017-12-26T07:29:24.865Z,8.10
2017-12-26T07:30:26.272Z,8.14
2017-12-26T07:31:27.690Z,8.00
2017-12-26T07:32:29.112Z,7.96
2017-12-26T07:33:30.528Z,8.02
2017-12-26T07:34:31.934Z,8.03
2017-12-26T07:35:33.342Z,7.92
2017-12-26T07:36:34.758Z,7.94
2017-12-26T07:37:36.179Z,7.89
2017-12-26T07:38:37.579Z,7.85
2017-12-26T07:39:39.003Z,7.99
2017-12-26T07:40:40.412Z,7.99
2017-12-26T07:41:41.828Z,8.02
2017-12-26T07:42:43.238Z,8.04
2017-12-26T07:43:44.654Z,8.03
2017-12-26T07:44:46.054Z,8.02
2017-12-26T07:45:47.464Z,7.99
2017-12-26T07:46:48.892Z,8.02
2017-12-26T07:47:50.285Z,7.93
2017-12-26T07:48:51.698Z,7.97
2017-12-26T07:49:53.116Z,7.93
2017-12-26T07:50:54.526Z,8.03
2017-12-26T07:51:55.941Z,8.14
2017-12-26T07:52:57.349Z,8.07
2017-12-26T07:53:58.773Z,8.00
2017-12-26T07:55:00.186Z,7.97
2017-12-26T07:56:01.596Z,8.03
2017-12-26T07:57:03.009Z,8.21
2017-12-26T07:58:04.415Z,8.21
2017-12-26T07:59:05.827Z,8.10
2017-12-26T08:00:07.249Z,8.17
2017-12-26T08:01:08.661Z,7.96
2017-12-26T08:02:10.066Z,8.02
2017-12-26T08:03:11.479Z,8.00
2017-12-26T08:04:12.890Z,8.20
2017-12-26T08:05:14.298Z,8.21
2017-12-26T08:06:15.719Z,8.00
2017-12-26T08:07:17.127Z,7.97
2017-12-26T08:08:18.539Z,8.18
2017-12-26T08:09:19.948Z,8.00
2017-12-26T08:10:21.374Z,8.03
2017-12-26T08:11:22.784Z,8.07
2017-12-26T08:12:24.253Z,8.22
2017-12-26T08:13:25.669Z,8.17
2017-12-26T08:14:27.072Z,8.02
2017-12-26T08:15:28.489Z,8.00
2017-12-26T08:16:29.906Z,8.32
2017-12-26T08:17:31.313Z,8.63
2017-12-26T08:18:32.807Z,8.62
2017-12-26T08:19:34.225Z,8.71
2017-12-26T08:20:35.635Z,8.72
2017-12-26T08:21:37.046Z,8.71
2017-12-26T08:22:38.458Z,8.69
2017-12-26T08:23:39.869Z,8.35
2017-12-26T08:24:41.277Z,8.42
2017-12-26T08:25:42.699Z,8.68
2017-12-26T08:26:44.106Z,8.35
2017-12-26T08:27:45.525Z,8.55
2017-12-26T08:28:46.953Z,8.37
2017-12-26T08:29:48.363Z,8.02
2017-12-26T08:30:49.790Z,7.97
2017-12-26T08:31:51.208Z,8.11
2017-12-26T08:32:52.623Z,8.03
2017-12-26T08:33:54.050Z,8.08
2017-12-26T08:34:55.468Z,8.10
2017-12-26T08:35:56.888Z,8.14
2017-12-26T08:36:58.302Z,8.03
2017-12-26T08:37:59.716Z,8.20
2017-12-26T08:39:01.126Z,8.25
2017-12-26T08:40:02.546Z,8.32
2017-12-26T08:41:03.968Z,8.32
2017-12-26T08:42:05.396Z,8.32
2017-12-26T08:43:06.822Z,8.33
2017-12-26T08:44:08.242Z,8.12
2017-12-26T08:45:09.656Z,8.18
2017-12-26T08:46:11.067Z,8.17
2017-12-26T08:47:12.490Z,8.44
2017-12-26T08:48:13.905Z,8.50
2017-12-26T08:49:15.320Z,8.37
2017-12-26T08:50:16.737Z,8.35
2017-12-26T08:51:18.158Z,8.57
2017-12-26T08:52:19.585Z,8.35
2017-12-26T08:53:20.999Z,8.53
2017-12-26T08:54:22.417Z,8.22
2017-12-26T08:55:23.832Z,8.30
2017-12-26T08:56:25.245Z,8.20
2017-12-26T08:57:26.661Z,8.32
2017-12-26T08:58:28.070Z,7.85
2017-12-26T08:59:29.485Z,7.93
2017-12-26T09:00:30.902Z,7.82
2017-12-26T09:01:32.323Z,7.62
2017-12-26T09:02:33.728Z,7.60
2017-12-26T09:03:35.168Z,7.72
2017-12-26T09:04:36.583Z,7.77
2017-12-26T09:05:38.009Z,7.55
2017-12-26T09:06:39.421Z,7.71
2017-12-26T09:07:40.844Z,7.74
2017-12-26T09:08:42.262Z,7.79
2017-12-26T09:09:43.671Z,7.58
2017-12-26T09:10:45.159Z,7.71
2017-12-26T09:11:46.568Z,7.59
2017-12-26T09:12:47.983Z,7.59
2017-12-26T09:13:49.401Z,7.55
2017-12-26T09:14:50.808Z,7.56
2017-12-26T09:15:52.232Z,7.62
2017-12-26T09:16:53.650Z,7.49
2017-12-26T09:17:55.096Z,7.56
2017-12-26T09:18:56.487Z,7.49
2017-12-26T09:19:57.899Z,7.27
2017-12-26T09:20:59.325Z,7.40
2017-12-26T09:22:00.731Z,7.32
2017-12-26T09:23:02.144Z,7.42
2017-12-26T09:24:03.556Z,7.44
2017-12-26T09:25:05.009Z,7.44
2017-12-26T09:26:07.235Z,7.32
2017-12-26T09:27:08.676Z,7.58
2017-12-26T09:28:10.089Z,7.49
2017-12-26T09:29:11.733Z,7.47
2017-12-26T09:30:13.185Z,7.32
2017-12-26T09:31:14.598Z,7.31
2017-12-26T09:32:16.007Z,7.29
2017-12-26T09:33:17.488Z,7.41
2017-12-26T09:34:18.912Z,7.34
2017-12-26T09:35:20.324Z,7.34
2017-12-26T09:36:21.742Z,7.49
2017-12-26T09:37:23.251Z,7.59
2017-12-26T09:38:25.863Z,7.49
2017-12-26T09:39:27.589Z,7.60
2017-12-26T09:40:29.378Z,7.40
2017-12-26T09:41:30.736Z,7.44
2017-12-26T09:42:32.151Z,7.40
2017-12-26T09:43:33.571Z,7.34
2017-12-26T09:44:34.991Z,7.40
2017-12-26T09:45:36.413Z,7.45
2017-12-26T09:46:37.813Z,7.45
2017-12-26T09:47:39.229Z,7.17
2017-12-26T09:48:40.647Z,7.41
2017-12-26T09:49:42.117Z,7.31
2017-12-26T09:50:43.538Z,7.38
2017-12-26T09:51:44.967Z,7.27
2017-12-26T09:52:46.368Z,7.32
2017-12-26T09:53:47.782Z,7.37
2017-12-26T09:54:49.212Z,7.49
2017-12-26T09:55:50.630Z,7.60
2017-12-26T09:56:52.055Z,7.53
2017-12-26T09:57:53.459Z,7.53
2017-12-26T09:58:54.880Z,7.63
2017-12-26T09:59:56.301Z,7.58
2017-12-26T10:00:57.715Z,7.60
2017-12-26T10:01:59.123Z,7.71
2017-12-26T10:03:00.534Z,7.59
2017-12-26T10:04:01.942Z,7.47
2017-12-26T10:05:03.400Z,7.59
2017-12-26T10:06:04.870Z,7.63
2017-12-26T10:07:06.360Z,7.50
2017-12-26T10:08:07.819Z,7.56
2017-12-26T10:09:09.238Z,7.42
2017-12-26T10:10:10.660Z,7.74
2017-12-26T10:11:12.191Z,7.60
2017-12-26T10:12:13.665Z,7.78
2017-12-26T10:13:15.042Z,7.75
2017-12-26T10:14:16.458Z,7.71
2017-12-26T10:15:17.875Z,7.52
2017-12-26T10:16:19.281Z,7.56
2017-12-26T10:17:20.758Z,7.60
2017-12-26T10:18:22.168Z,7.59
2017-12-26T10:19:23.586Z,7.59
2017-12-26T10:20:25.002Z,7.74
2017-12-26T10:21:26.417Z,8.02
2017-12-26T10:22:27.827Z,7.89
2017-12-26T10:23:29.237Z,7.89
2017-12-26T10:24:30.674Z,7.74
2017-12-26T10:25:32.086Z,7.89
2017-12-26T10:26:33.505Z,7.99
2017-12-26T10:27:34.925Z,7.82
2017-12-26T10:28:36.342Z,7.99
2017-12-26T10:29:37.759Z,7.93
2017-12-26T10:30:39.178Z,7.94
2017-12-26T10:31:40.591Z,7.84
2017-12-26T10:32:42.022Z,7.71
2017-12-26T10:33:43.434Z,7.87
2017-12-26T10:34:44.852Z,8.03
2017-12-26T10:35:46.275Z,8.00
2017-12-26T10:36:47.690Z,8.14
2017-12-26T10:37:49.103Z,8.20
2017-12-26T10:38:50.518Z,7.99
2017-12-26T10:39:51.938Z,8.00
2017-12-26T10:40:53.366Z,8.04
2017-12-26T10:41:54.778Z,8.25
2017-12-26T10:42:56.192Z,8.20
2017-12-26T10:43:57.613Z,8.26
2017-12-26T10:44:59.036Z,8.30
2017-12-26T10:46:00.446Z,8.07
2017-12-26T10:47:01.859Z,8.26
2017-12-26T10:48:03.278Z,7.96
2017-12-26T10:49:04.699Z,8.17
2017-12-26T10:50:06.240Z,8.18
2017-12-26T10:51:07.655Z,8.18
2017-12-26T10:52:09.074Z,8.21
2017-12-26T10:53:10.496Z,8.26
2017-12-26T10:54:11.912Z,8.51
2017-12-26T10:55:13.334Z,8.45
2017-12-26T10:56:14.828Z,8.30
2017-12-26T10:57:16.251Z,8.37
2017-12-26T10:58:17.673Z,8.44
2017-12-26T10:59:19.098Z,8.39
2017-12-26T11:00:20.519Z,8.60
2017-12-26T11:01:21.938Z,8.44
2017-12-26T11:02:23.363Z,8.35
2017-12-26T11:03:24.786Z,8.30
2017-12-26T11:04:26.218Z,8.51
2017-12-26T11:05:27.667Z,8.42
2017-12-26T11:06:29.093Z,8.48
2017-12-26T11:07:30.511Z,8.39
2017-12-26T11:08:31.937Z,8.30
2017-12-26T11:09:33.352Z,8.32
2017-12-26T11:10:34.775Z,8.32
2017-12-26T11:11:36.190Z,8.21
2017-12-26T11:12:37.612Z,8.42
2017-12-26T11:13:39.029Z,8.60
2017-12-26T11:14:40.440Z,8.50
2017-12-26T11:15:41.858Z,8.54
2017-12-26T11:16:43.291Z,8.30
2017-12-26T11:17:44.714Z,8.44
2017-12-26T11:18:46.126Z,8.30
2017-12-26T11:19:47.544Z,8.28
2017-12-26T11:20:48.950Z,8.32
2017-12-26T11:21:50.377Z,8.35
2017-12-26T11:22:51.803Z,8.42
2017-12-26T11:23:53.217Z,8.50
2017-12-26T11:24:54.658Z,8.51
2017-12-26T11:25:56.066Z,8.42
2017-12-26T11:26:57.488Z,8.48
2017-12-26T11:28:05.068Z,8.36
2017-12-26T11:29:07.071Z,8.47
2017-12-26T11:30:08.513Z,8.55
2017-12-26T11:31:12.062Z,8.63
2017-12-26T11:32:16.114Z,8.32
2017-12-26T11:33:20.410Z,8.33
2017-12-26T11:34:22.711Z,8.25
2017-12-26T11:35:26.744Z,8.26
2017-12-26T11:36:30.393Z,8.03
2017-12-26T11:37:35.329Z,8.12
2017-12-26T11:38:37.566Z,8.14
2017-12-26T11:39:43.029Z,8.36
2017-12-26T11:40:46.929Z,8.47
2017-12-26T11:41:50.687Z,8.50
2017-12-26T11:42:55.136Z,8.60
2017-12-26T11:43:58.671Z,8.53
2017-12-26T11:45:00.746Z,8.69
2017-12-26T11:46:02.836Z,8.86
2017-12-26T11:47:06.909Z,8.79
2017-12-26T11:48:08.926Z,8.69
2017-12-26T11:49:11.368Z,8.65
2017-12-26T11:50:12.780Z,8.63
2017-12-26T11:51:14.212Z,8.65
2017-12-26T11:52:15.633Z,8.53
2017-12-26T11:53:17.054Z,8.53
2017-12-26T11:54:18.474Z,8.40
2017-12-26T11:55:19.910Z,8.55
2017-12-26T11:56:21.329Z,8.62
2017-12-26T11:57:22.759Z,8.57
2017-12-26T11:58:24.177Z,8.71
2017-12-26T11:59:30.684Z,8.60
2017-12-26T12:00:35.479Z,8.65
2017-12-26T12:01:39.265Z,8.71
2017-12-26T12:02:43.827Z,8.94
2017-12-26T12:03:47.069Z,8.99
2017-12-26T12:04:51.605Z,9.06
2017-12-26T12:05:55.482Z,8.94
2017-12-26T12:06:59.806Z,9.10
2017-12-26T12:08:04.611Z,9.10
2017-12-26T12:09:08.289Z,8.90
2017-12-26T12:10:11.670Z,8.83
2017-12-26T12:11:15.998Z,8.87
2017-12-26T12:12:19.350Z,8.86
2017-12-26T12:13:23.218Z,8.69
2017-12-26T12:14:24.394Z,8.75
2017-12-26T12:15:25.814Z,8.71
2017-12-26T12:16:27.264Z,8.78
2017-12-26T12:17:28.692Z,8.51
2017-12-26T12:18:30.110Z,8.62
2017-12-26T12:19:31.572Z,8.54
2017-12-26T12:20:33.005Z,8.71
2017-12-26T12:21:34.432Z,8.72
2017-12-26T12:22:35.847Z,8.57
2017-12-26T12:23:37.285Z,8.55
2017-12-26T12:24:38.678Z,8.53
2017-12-26T12:25:40.091Z,8.63
2017-12-26T12:26:41.511Z,8.53
2017-12-26T12:27:42.927Z,8.62
2017-12-26T12:28:44.460Z,8.75
2017-12-26T12:29:45.872Z,8.62
2017-12-26T12:30:47.297Z,8.91
2017-12-26T12:31:48.706Z,8.90
2017-12-26T12:32:50.125Z,9.09
2017-12-26T12:33:51.532Z,9.01
2017-12-26T12:34:52.950Z,8.97
2017-12-26T12:35:54.389Z,9.13
2017-12-26T12:36:55.868Z,8.88
2017-12-26T12:37:57.321Z,9.10
2017-12-26T12:38:58.739Z,9.23
2017-12-26T12:40:00.162Z,9.35
2017-12-26T12:41:01.583Z,9.34
2017-12-26T12:42:03.007Z,10.39
2017-12-26T12:43:04.433Z,9.57
2017-12-26T12:44:05.850Z,9.56
2017-12-26T12:45:07.271Z,9.50
2017-12-26T12:46:08.692Z,9.67
2017-12-26T12:47:10.142Z,9.61
2017-12-26T12:48:11.564Z,9.91
2017-12-26T12:49:12.982Z,10.24
2017-12-26T12:50:14.409Z,11.32
2017-12-26T12:51:15.833Z,11.28
2017-12-26T12:52:17.248Z,11.28
2017-12-26T12:53:18.677Z,11.29
2017-12-26T12:54:20.099Z,11.11
2017-12-26T12:55:21.532Z,10.76
2017-12-26T12:56:22.963Z,10.40
2017-12-26T12:57:24.380Z,10.18
2017-12-26T12:58:25.794Z,10.04
2017-12-26T12:59:27.211Z,10.24
2017-12-26T13:00:28.629Z,9.96
2017-12-26T13:01:30.065Z,10.14
2017-12-26T13:02:31.494Z,10.18
2017-12-26T13:03:32.917Z,10.46
2017-12-26T13:04:34.332Z,10.56
2017-12-26T13:05:35.797Z,10.65
2017-12-26T13:06:37.224Z,10.12
2017-12-26T13:07:38.652Z,10.36
2017-12-26T13:08:40.071Z,10.15
2017-12-26T13:09:41.487Z,9.91
2017-12-26T13:10:42.907Z,9.99
2017-12-26T13:11:44.323Z,9.81
2017-12-26T13:12:45.747Z,9.49
2017-12-26T13:13:47.170Z,9.56
2017-12-26T13:14:48.589Z,9.28
2017-12-26T13:16:31.399Z,9.23
2017-12-26T13:17:32.825Z,9.13
2017-12-26T13:18:34.230Z,9.15
2017-12-26T13:19:35.659Z,9.24
2017-12-26T13:20:37.074Z,9.13
2017-12-26T13:21:38.535Z,9.10
2017-12-26T13:22:39.960Z,9.01
2017-12-26T13:23:41.385Z,8.99
2017-12-26T13:24:42.807Z,9.05
2017-12-26T13:25:44.223Z,9.10
2017-12-26T13:26:45.647Z,9.06
2017-12-26T13:27:47.061Z,9.05
2017-12-26T13:28:48.491Z,9.10
2017-12-26T13:29:49.909Z,9.06
2017-12-26T13:30:51.321Z,8.90
2017-12-26T13:31:52.748Z,9.02
2017-12-26T13:32:54.166Z,8.97
2017-12-26T13:33:55.586Z,9.01
2017-12-26T13:35:07.170Z,9.09
2017-12-26T13:43:46.719Z,8.79
2017-12-26T13:44:53.116Z,8.88
2017-12-26T13:45:57.339Z,8.81